Terminal Aerodrome Forecast
Issued by NWS

Home | Current Version | Previous Version | Graphics & Text | Print | Product List | Glossary On
Versions: 1 2 3 4 5 6 7 8 9 10 11 12 13 14 15 16 17 18
000
FTUS43 KBIS 200500
TAFJMS
TAF
KJMS 200539Z 2006/2106 31008KT P6SM SCT250
     FM201100 28009KT P6SM SCT120
     FM201600 29014KT P6SM VCSH BKN070
     FM201900 30020G30KT P6SM BKN080
     FM202100 31021G31KT P6SM SCT250=

USA.gov is the U.S. government's official web portal to all federal, state and local government web resources and services.